Terminal Aerodrome Forecast
Issued by NWS

Home | Current Version | Previous Version | Text Only | Print | Product List | Glossary On
Versions: 1 2 3 4 5 6 7 8 9 10 11 12 13 14 15 16 17 18 19 20 21
000
FTUS41 KALY 041907 AAA
TAFPSF
TAF AMD
KPSF 041907Z 0419/0518 10005KT P6SM VCSH SCT060
      TEMPO 0419/0422 29015G25KT 3SM -SHRA BR SCT020 OVC035
     FM042200 28007KT P6SM SCT050 BKN100
     FM050700 VRB03KT P6SM BKN050 BKN100
     FM051000 VRB03KT 4SM BR SCT020 BKN070=

USA.gov is the U.S. government's official web portal to all federal, state and local government web resources and services.